Time;durP1;ratioP1;P1;durP2;ratioP2;P2;SDS_P1;SDS_P2;PMS_P1;PMS_P2;Temp;Humidity;BMP_temperature;BMP_pressure;BME280_temperature;BME280_humidity;BME280_pressure;Samples;Min_cycle;Max_cycle;Signal;HPM_P1;HPM_P2
2022/04/24 00:00:03;;;;;;;5.80;5.07;;;18.80;63.40;;;;;;5014259;28;20079;-71
2022/04/24 00:02:29;;;;;;;4.80;4.40;;;18.80;63.50;;;;;;5030647;28;20041;-71
2022/04/24 00:04:54;;;;;;;5.03;4.53;;;18.80;63.50;;;;;;5031231;28;20030;-72
2022/04/24 00:07:20;;;;;;;8.30;5.32;;;18.80;63.50;;;;;;5035631;28;20029;-71
2022/04/24 00:09:46;;;;;;;5.82;4.75;;;18.80;63.60;;;;;;5035195;28;20018;-71
2022/04/24 00:12:18;;;;;;;4.93;4.45;;;18.80;63.60;;;;;;5035108;28;20049;-71
2022/04/24 00:14:44;;;;;;;5.97;4.80;;;18.80;63.60;;;;;;5034065;28;20021;-71
2022/04/24 00:17:10;;;;;;;4.93;4.53;;;18.80;63.70;;;;;;5035247;28;20411;-71
2022/04/24 00:19:36;;;;;;;6.45;4.78;;;18.80;63.70;;;;;;5033750;28;20101;-71
2022/04/24 00:22:01;;;;;;;6.63;4.53;;;18.80;63.70;;;;;;5034909;28;20079;-71
2022/04/24 00:24:27;;;;;;;6.22;4.47;;;18.80;63.70;;;;;;5035185;28;20056;-71
2022/04/24 00:26:54;;;;;;;5.28;4.78;;;18.80;63.80;;;;;;5034994;28;20029;-71
2022/04/24 00:29:20;;;;;;;5.05;4.55;;;18.80;63.90;;;;;;5035056;28;20030;-71
2022/04/24 00:31:45;;;;;;;7.75;4.88;;;18.80;63.90;;;;;;5034831;28;20025;-71
2022/04/24 00:34:11;;;;;;;6.45;4.35;;;18.80;63.90;;;;;;5034718;28;20075;-71
2022/04/24 00:36:37;;;;;;;4.60;4.20;;;18.80;63.90;;;;;;5033757;28;20034;-71
2022/04/24 00:39:03;;;;;;;5.28;4.78;;;18.80;64.00;;;;;;5034474;28;20065;-71
2022/04/24 00:41:28;;;;;;;4.80;4.30;;;18.80;63.90;;;;;;5034690;28;20127;-71
2022/04/24 00:43:54;;;;;;;4.82;4.43;;;18.90;64.00;;;;;;5034615;28;20034;-71
2022/04/24 00:46:40;;;;;;;4.45;4.05;;;18.80;64.00;;;;;;5033435;28;20040;-71
2022/04/24 00:49:10;;;;;;;5.55;4.45;;;18.90;64.10;;;;;;5034547;28;20029;-71
2022/04/24 00:51:39;;;;;;;5.28;4.40;;;18.80;64.10;;;;;;5017501;28;20498;-71
2022/04/24 00:54:10;;;;;;;5.75;4.82;;;18.80;64.10;;;;;;5033462;28;20115;-71
2022/04/24 00:56:37;;;;;;;4.38;3.97;;;18.80;64.10;;;;;;5034606;28;20032;-71
2022/04/24 00:59:04;;;;;;;5.45;4.32;;;18.80;64.20;;;;;;5016954;28;20100;-71
2022/04/24 01:01:30;;;;;;;4.50;4.10;;;18.80;64.20;;;;;;5033340;28;20055;-71
2022/04/24 01:03:59;;;;;;;6.43;4.35;;;18.80;64.20;;;;;;5016420;28;20488;-72
2022/04/24 01:06:26;;;;;;;5.55;4.30;;;18.80;64.20;;;;;;5033175;28;20021;-71
2022/04/24 01:08:52;;;;;;;5.38;4.25;;;18.80;64.20;;;;;;5033018;28;20025;-71
2022/04/24 01:11:17;;;;;;;5.40;4.90;;;18.80;64.20;;;;;;5034154;28;20554;-71
2022/04/24 01:13:43;;;;;;;5.00;4.60;;;18.80;64.30;;;;;;5034077;28;20456;-71
2022/04/24 01:16:09;;;;;;;5.63;4.68;;;18.80;64.30;;;;;;5034181;28;20500;-71
2022/04/24 01:18:34;;;;;;;5.15;4.13;;;18.80;64.30;;;;;;5033462;28;20065;-71
2022/04/24 01:21:09;;;;;;;7.53;5.03;;;18.80;64.30;;;;;;5032618;28;20026;-71
2022/04/24 01:23:35;;;;;;;5.20;4.70;;;18.90;64.50;;;;;;5016767;28;20550;-71
2022/04/24 01:26:01;;;;;;;4.55;4.15;;;18.80;64.40;;;;;;5033897;28;20029;-71
2022/04/24 01:28:26;;;;;;;5.05;4.47;;;18.80;64.50;;;;;;5032823;28;20033;-71
2022/04/24 01:30:52;;;;;;;4.30;3.90;;;18.80;64.50;;;;;;5033807;28;20025;-71
2022/04/24 01:33:17;;;;;;;5.25;4.13;;;18.80;64.50;;;;;;5033789;28;20021;-71
2022/04/24 01:35:43;;;;;;;5.82;4.40;;;18.80;64.50;;;;;;5033760;28;20025;-71
2022/04/24 01:38:09;;;;;;;4.97;4.15;;;18.80;64.60;;;;;;5034019;28;20021;-70
2022/04/24 01:40:34;;;;;;;4.65;4.25;;;18.80;64.60;;;;;;5033550;28;20068;-71
2022/04/24 01:43:00;;;;;;;4.72;4.10;;;18.80;64.60;;;;;;5032228;28;20025;-71
2022/04/24 01:45:25;;;;;;;4.85;4.45;;;18.80;64.60;;;;;;5033569;28;20112;-71
2022/04/24 01:47:51;;;;;;;4.90;4.28;;;18.80;64.70;;;;;;5033499;28;20425;-71
2022/04/24 01:50:17;;;;;;;4.55;4.15;;;18.80;64.60;;;;;;5033580;28;20069;-71
2022/04/24 01:52:42;;;;;;;4.28;3.88;;;18.80;64.70;;;;;;5033461;28;20030;-71
2022/04/24 01:55:08;;;;;;;4.93;3.88;;;18.80;64.70;;;;;;5033521;28;20136;-71
2022/04/24 01:57:33;;;;;;;4.18;3.78;;;18.80;64.70;;;;;;5015987;28;20025;-71
2022/04/24 01:59:59;;;;;;;4.68;4.25;;;18.80;64.80;;;;;;5033075;28;20109;-71
2022/04/24 02:02:25;;;;;;;6.35;4.15;;;18.80;64.90;;;;;;5032198;28;20398;-71
2022/04/24 02:04:50;;;;;;;4.50;4.10;;;18.80;64.80;;;;;;5031868;28;20040;-71
2022/04/24 02:07:16;;;;;;;4.70;4.30;;;18.80;64.80;;;;;;5033363;28;20026;-71
2022/04/24 02:09:42;;;;;;;3.95;3.65;;;18.80;64.90;;;;;;5033179;28;20096;-71
2022/04/24 02:12:08;;;;;;;4.80;4.40;;;18.80;64.90;;;;;;5032891;28;20025;-71
2022/04/24 02:14:33;;;;;;;4.57;4.18;;;18.80;64.90;;;;;;5032783;28;20025;-71
2022/04/24 02:16:59;;;;;;;4.57;4.18;;;18.80;64.90;;;;;;5031749;28;20036;-71
2022/04/24 02:19:25;;;;;;;4.40;4.05;;;18.80;64.90;;;;;;5031894;28;20052;-71
2022/04/24 02:21:50;;;;;;;4.68;3.90;;;18.80;65.90;;;;;;5032852;28;20025;-71
2022/04/24 02:24:16;;;;;;;5.95;4.45;;;18.80;65.00;;;;;;5032791;28;20087;-71
2022/04/24 02:26:42;;;;;;;4.30;3.90;;;18.80;65.00;;;;;;5032941;28;20047;-71
2022/04/24 02:29:07;;;;;;;5.35;4.53;;;18.80;65.00;;;;;;5031805;28;20033;-71
2022/04/24 02:31:33;;;;;;;4.45;4.05;;;18.80;65.00;;;;;;5031786;28;20025;-71
2022/04/24 02:33:59;;;;;;;4.97;4.05;;;18.80;65.00;;;;;;5032827;28;20040;-71
2022/04/24 02:36:24;;;;;;;4.80;4.22;;;18.80;65.20;;;;;;5032585;28;20163;-71
2022/04/24 02:38:50;;;;;;;4.45;4.10;;;18.80;65.20;;;;;;5031467;28;20501;-71
2022/04/24 02:41:16;;;;;;;4.45;4.07;;;18.80;65.10;;;;;;5032621;28;20037;-71
2022/04/24 02:43:42;;;;;;;4.35;4.05;;;18.80;65.20;;;;;;5032422;28;20032;-71
2022/04/24 02:46:07;;;;;;;4.40;4.00;;;18.80;65.20;;;;;;5032495;28;20099;-71
2022/04/24 02:48:33;;;;;;;4.68;4.18;;;18.80;65.20;;;;;;5032583;28;20025;-71
2022/04/24 02:50:59;;;;;;;4.60;4.20;;;18.80;65.30;;;;;;5031216;28;20503;-71
2022/04/24 02:53:24;;;;;;;4.18;3.83;;;18.80;65.30;;;;;;5032710;28;20083;-71
2022/04/24 02:55:50;;;;;;;4.47;4.07;;;18.80;65.30;;;;;;5014739;28;20029;-71
2022/04/24 02:58:15;;;;;;;4.90;4.20;;;18.80;65.30;;;;;;5032280;28;20071;-71
2022/04/24 03:00:43;;;;;;;4.80;4.40;;;18.80;65.30;;;;;;5032284;28;20064;-71
2022/04/24 03:03:09;;;;;;;4.65;4.20;;;18.80;65.30;;;;;;5032215;28;20029;-71
2022/04/24 03:05:35;;;;;;;5.47;4.47;;;18.70;65.30;;;;;;5032294;28;20025;-71
2022/04/24 03:08:01;;;;;;;5.70;4.03;;;18.70;65.40;;;;;;5031071;28;20072;-71
2022/04/24 03:10:28;;;;;;;5.35;3.67;;;18.80;65.40;;;;;;5014757;28;20392;-70
2022/04/24 03:12:54;;;;;;;5.07;3.97;;;18.70;65.40;;;;;;5030726;28;20029;-71
2022/04/24 03:15:19;;;;;;;4.50;4.10;;;18.80;65.50;;;;;;5031199;28;20025;-71
2022/04/24 03:17:45;;;;;;;4.82;4.05;;;18.70;65.50;;;;;;5032327;28;20030;-71
2022/04/24 03:20:12;;;;;;;4.70;4.30;;;18.80;65.50;;;;;;5032120;28;20500;-71
2022/04/24 03:22:37;;;;;;;4.10;3.70;;;18.70;65.50;;;;;;5031069;28;20057;-71
2022/04/24 03:25:05;;;;;;;6.55;4.35;;;18.80;65.60;;;;;;5030743;28;20128;-71
2022/04/24 03:27:30;;;;;;;3.90;3.60;;;18.70;65.50;;;;;;5032062;28;20018;-71
2022/04/24 03:29:56;;;;;;;4.95;4.20;;;18.70;65.50;;;;;;5030871;28;20392;-71
2022/04/24 03:32:22;;;;;;;4.45;4.05;;;18.80;65.50;;;;;;5031060;28;20028;-71
2022/04/24 03:34:47;;;;;;;4.38;3.97;;;18.70;65.50;;;;;;5032168;28;20026;-71
2022/04/24 03:37:13;;;;;;;4.47;4.05;;;18.80;65.60;;;;;;5030522;28;20021;-71
2022/04/24 03:39:38;;;;;;;4.47;4.07;;;18.70;65.50;;;;;;5031947;28;20041;-71
2022/04/24 03:42:06;;;;;;;4.05;3.75;;;18.70;65.50;;;;;;5035297;28;20036;-71
2022/04/24 03:44:33;;;;;;;4.75;4.35;;;18.80;65.60;;;;;;5036069;28;20064;-71
2022/04/24 03:46:59;;;;;;;6.13;3.97;;;18.70;65.50;;;;;;5035676;28;20041;-71
2022/04/24 03:49:27;;;;;;;4.53;4.13;;;18.70;65.70;;;;;;5035760;28;20052;-71
2022/04/24 03:51:53;;;;;;;4.93;4.40;;;18.70;65.70;;;;;;5035643;28;20026;-71
2022/04/24 03:54:19;;;;;;;4.60;4.20;;;18.70;65.70;;;;;;5034492;28;20028;-71
2022/04/24 03:56:45;;;;;;;4.13;3.58;;;18.70;65.70;;;;;;5035578;28;20484;-71
2022/04/24 03:59:10;;;;;;;4.60;4.07;;;18.70;65.70;;;;;;5035390;28;20029;-71
2022/04/24 04:01:36;;;;;;;5.35;4.35;;;18.70;65.70;;;;;;5034448;28;20043;-71
2022/04/24 04:04:02;;;;;;;5.97;4.50;;;18.70;65.70;;;;;;5035642;28;20029;-71
2022/04/24 04:06:27;;;;;;;4.45;4.05;;;18.70;65.80;;;;;;5034213;28;20421;-71
2022/04/24 04:08:53;;;;;;;4.70;4.25;;;18.70;65.70;;;;;;5034320;28;20021;-70
2022/04/24 04:11:19;;;;;;;4.93;4.43;;;18.70;65.80;;;;;;5035056;28;20087;-70
2022/04/24 04:13:45;;;;;;;5.40;4.35;;;18.70;65.80;;;;;;5035204;28;20052;-70
2022/04/24 04:16:10;;;;;;;5.07;4.38;;;18.70;65.90;;;;;;5035236;28;20025;-70
2022/04/24 04:18:36;;;;;;;4.93;4.10;;;18.70;65.90;;;;;;5035552;28;20029;-70
2022/04/24 04:21:02;;;;;;;4.55;4.15;;;18.70;65.90;;;;;;5034979;28;20036;-70
2022/04/24 04:23:27;;;;;;;4.28;3.97;;;18.70;65.90;;;;;;5035058;28;20021;-70
2022/04/24 04:25:53;;;;;;;4.65;4.25;;;18.70;65.90;;;;;;5034769;28;20453;-71
2022/04/24 04:28:18;;;;;;;4.38;3.97;;;18.70;66.00;;;;;;5035140;28;20029;-71
2022/04/24 04:30:44;;;;;;;4.68;4.13;;;18.70;66.00;;;;;;5035098;28;20105;-70
2022/04/24 04:33:10;;;;;;;4.32;3.95;;;18.70;66.00;;;;;;5035003;28;20113;-70
2022/04/24 04:35:36;;;;;;;4.22;3.83;;;18.70;66.00;;;;;;5034834;28;20474;-71
2022/04/24 04:38:02;;;;;;;4.03;3.70;;;18.70;66.00;;;;;;5033732;28;20036;-71
2022/04/24 04:40:28;;;;;;;5.40;3.85;;;18.70;66.00;;;;;;5016804;28;20057;-71
2022/04/24 04:42:53;;;;;;;5.18;4.28;;;18.70;66.00;;;;;;5034907;28;20431;-71
2022/04/24 04:45:19;;;;;;;5.25;4.10;;;18.70;66.00;;;;;;5034642;28;20079;-71
2022/04/24 04:47:47;;;;;;;4.25;3.88;;;18.70;66.10;;;;;;5034793;28;20075;-71
2022/04/24 04:50:12;;;;;;;5.90;4.32;;;18.70;66.10;;;;;;5034594;28;20520;-71
2022/04/24 04:52:38;;;;;;;4.47;4.07;;;18.70;66.10;;;;;;5033761;28;20018;-71
2022/04/24 04:55:04;;;;;;;5.18;3.88;;;18.70;66.10;;;;;;5034398;28;20542;-71
2022/04/24 04:57:30;;;;;;;5.18;4.40;;;18.70;66.10;;;;;;5034594;28;20029;-71
2022/04/24 04:59:55;;;;;;;4.75;4.25;;;18.70;66.20;;;;;;5033543;28;20029;-71
2022/04/24 05:02:21;;;;;;;4.10;3.80;;;18.70;66.10;;;;;;5034368;28;20389;-71
2022/04/24 05:04:47;;;;;;;4.22;3.83;;;18.70;66.10;;;;;;5016817;28;20396;-71
2022/04/24 05:07:13;;;;;;;6.65;4.38;;;18.70;66.10;;;;;;5034303;28;20033;-71
2022/04/24 05:09:39;;;;;;;4.68;4.25;;;18.70;66.10;;;;;;5033027;28;20026;-71
2022/04/24 05:12:05;;;;;;;4.53;3.95;;;18.70;66.20;;;;;;5032926;28;20530;-71
2022/04/24 05:14:31;;;;;;;5.82;4.63;;;18.70;66.20;;;;;;5033163;28;20021;-71
2022/04/24 05:16:57;;;;;;;5.07;4.55;;;18.70;66.20;;;;;;5034363;28;20028;-71
2022/04/24 05:19:23;;;;;;;4.18;3.75;;;18.70;66.20;;;;;;5034184;28;20108;-71
2022/04/24 05:21:49;;;;;;;4.63;4.20;;;18.70;66.20;;;;;;5033914;28;20495;-71
2022/04/24 05:24:15;;;;;;;4.38;3.97;;;18.70;66.20;;;;;;5033674;28;20025;-71
2022/04/24 05:26:40;;;;;;;5.18;4.10;;;18.70;66.20;;;;;;5032663;28;20047;-71
2022/04/24 05:29:07;;;;;;;4.95;4.45;;;18.70;66.20;;;;;;5032732;28;20056;-71
2022/04/24 05:31:32;;;;;;;4.50;3.95;;;18.70;66.20;;;;;;5032627;28;20499;-71
2022/04/24 05:33:58;;;;;;;5.75;4.70;;;18.70;66.20;;;;;;5032746;28;20026;-71
2022/04/24 05:36:24;;;;;;;5.45;4.40;;;18.70;66.20;;;;;;5032615;28;20021;-71
2022/04/24 05:38:49;;;;;;;4.72;4.28;;;18.70;66.30;;;;;;5033403;28;20030;-72
2022/04/24 05:41:15;;;;;;;4.65;4.25;;;18.70;66.30;;;;;;5033683;28;20072;-71
2022/04/24 05:43:41;;;;;;;4.78;4.18;;;18.70;66.30;;;;;;5033635;28;20104;-71
2022/04/24 05:46:06;;;;;;;5.45;4.50;;;18.70;66.30;;;;;;5033699;28;20065;-71
2022/04/24 05:48:32;;;;;;;4.57;4.18;;;18.70;66.40;;;;;;5032371;28;20026;-71
2022/04/24 05:50:57;;;;;;;5.13;4.63;;;18.60;66.30;;;;;;5033496;28;20033;-71
2022/04/24 05:53:23;;;;;;;4.18;3.78;;;18.70;66.40;;;;;;5033134;28;20025;-71
2022/04/24 05:55:49;;;;;;;4.65;3.80;;;18.70;66.40;;;;;;5033427;28;20059;-71
2022/04/24 05:58:14;;;;;;;4.60;4.20;;;18.60;66.30;;;;;;5032052;28;20069;-71
2022/04/24 06:00:40;;;;;;;5.85;4.50;;;18.60;66.30;;;;;;5033406;28;20100;-71
2022/04/24 06:03:06;;;;;;;4.25;3.85;;;18.60;66.30;;;;;;5033082;28;20022;-71
2022/04/24 06:05:32;;;;;;;4.68;4.05;;;18.60;66.40;;;;;;5033120;28;20384;-71
2022/04/24 06:07:57;;;;;;;4.25;3.85;;;18.60;66.30;;;;;;5033065;28;20022;-72
2022/04/24 06:10:23;;;;;;;5.53;4.10;;;18.60;66.40;;;;;;5033036;28;20098;-72
2022/04/24 06:12:55;;;;;;;4.40;4.00;;;18.60;66.40;;;;;;5032958;28;20014;-71
2022/04/24 06:15:22;;;;;;;4.40;4.07;;;18.60;66.40;;;;;;5032030;28;20057;-71
2022/04/24 06:17:50;;;;;;;4.38;4.03;;;18.60;66.50;;;;;;5033087;28;20033;-72
2022/04/24 06:20:16;;;;;;;4.60;4.20;;;18.60;66.50;;;;;;5031630;28;20025;-72
2022/04/24 06:22:48;;;;;;;4.65;4.22;;;18.60;66.50;;;;;;5032739;28;20095;-72
2022/04/24 06:25:18;;;;;;;4.30;3.92;;;18.60;66.50;;;;;;5032598;28;20037;-72
2022/04/24 06:27:47;;;;;;;4.80;4.30;;;18.60;66.50;;;;;;5015662;28;20106;-72
2022/04/24 06:30:14;;;;;;;4.30;3.90;;;18.60;66.50;;;;;;5032706;28;20017;-72
2022/04/24 06:32:41;;;;;;;5.55;3.80;;;18.60;66.50;;;;;;5032836;28;20021;-72
2022/04/24 06:35:09;;;;;;;4.30;3.90;;;18.60;66.60;;;;;;5031568;28;20018;-72
2022/04/24 06:37:37;;;;;;;4.15;3.80;;;18.60;66.50;;;;;;5032454;28;20076;-72
2022/04/24 06:40:08;;;;;;;4.53;4.13;;;18.60;66.50;;;;;;5033377;28;20095;-71
2022/04/24 06:42:34;;;;;;;4.32;3.97;;;18.60;66.50;;;;;;5040041;28;20055;-71
2022/04/24 06:45:00;;;;;;;5.30;3.92;;;18.60;66.50;;;;;;5037275;28;20553;-71
2022/04/24 06:47:27;;;;;;;4.90;3.90;;;18.60;66.60;;;;;;5040884;28;20037;-71
2022/04/24 06:49:54;;;;;;;4.55;3.92;;;18.60;66.60;;;;;;5039641;28;20104;-71
2022/04/24 06:52:20;;;;;;;4.93;4.43;;;18.60;66.50;;;;;;5038727;28;20430;-71
2022/04/24 06:54:46;;;;;;;4.13;3.63;;;18.60;66.50;;;;;;5036633;28;20018;-71
2022/04/24 06:57:11;;;;;;;4.82;4.00;;;18.60;66.50;;;;;;5042063;28;20027;-72
2022/04/24 06:59:37;;;;;;;4.63;4.10;;;18.60;66.60;;;;;;5052831;28;20479;-71
2022/04/24 07:02:03;;;;;;;4.32;3.92;;;18.60;66.60;;;;;;5052831;28;20032;-71
2022/04/24 07:04:28;;;;;;;4.53;4.13;;;18.60;66.60;;;;;;5052421;28;20087;-71
2022/04/24 07:06:54;;;;;;;4.53;4.00;;;18.60;66.60;;;;;;5052803;28;20021;-71
2022/04/24 07:09:19;;;;;;;4.22;3.83;;;18.60;66.60;;;;;;5052774;28;20021;-71
2022/04/24 07:11:45;;;;;;;4.30;3.90;;;18.60;66.60;;;;;;5045111;28;20389;-71
2022/04/24 07:14:11;;;;;;;3.60;3.28;;;18.60;66.60;;;;;;5012835;28;20511;-71
2022/04/24 07:16:37;;;;;;;4.03;3.70;;;18.60;66.60;;;;;;5016056;28;20026;-71
2022/04/24 07:19:02;;;;;;;4.10;3.70;;;18.60;66.60;;;;;;5017059;28;20041;-72
2022/04/24 07:21:28;;;;;;;4.15;3.75;;;18.60;66.70;;;;;;5016836;28;20041;-72
2022/04/24 07:23:54;;;;;;;4.70;4.20;;;18.60;66.70;;;;;;5016611;28;20049;-72
2022/04/24 07:26:19;;;;;;;4.60;4.20;;;18.60;66.70;;;;;;5015685;28;20377;-72
2022/04/24 07:28:45;;;;;;;4.78;3.80;;;18.60;66.70;;;;;;5017197;28;20389;-71
2022/04/24 07:31:14;;;;;;;3.72;3.40;;;18.60;66.60;;;;;;5016949;28;20021;-71
2022/04/24 07:33:40;;;;;;;4.55;3.83;;;18.60;66.70;;;;;;5016705;28;20109;-71
2022/04/24 07:36:06;;;;;;;4.20;3.80;;;18.60;66.70;;;;;;5015743;28;20120;-71
2022/04/24 07:38:31;;;;;;;4.63;3.72;;;18.60;66.70;;;;;;5016652;28;20573;-72
2022/04/24 07:40:58;;;;;;;3.90;3.60;;;18.60;66.70;;;;;;5016380;28;20042;-71
2022/04/24 07:43:24;;;;;;;3.63;3.25;;;18.60;66.70;;;;;;5016525;28;20022;-71
2022/04/24 07:45:50;;;;;;;4.28;3.97;;;18.60;66.80;;;;;;5015239;28;20030;-71
2022/04/24 07:48:17;;;;;;;8.32;4.05;;;18.60;66.70;;;;;;5016159;28;20469;-71
2022/04/24 07:50:48;;;;;;;5.90;3.97;;;18.60;66.70;;;;;;5016473;28;20021;-71
2022/04/24 07:53:14;;;;;;;4.07;3.72;;;18.60;66.70;;;;;;5016590;28;20018;-71
2022/04/24 07:55:40;;;;;;;4.20;3.80;;;18.60;66.70;;;;;;5016454;28;20080;-71
2022/04/24 07:58:06;;;;;;;3.80;3.50;;;18.60;66.70;;;;;;5015152;28;20388;-72
2022/04/24 08:00:32;;;;;;;4.30;3.90;;;18.60;66.80;;;;;;5016392;28;20022;-72
2022/04/24 08:03:03;;;;;;;4.68;3.70;;;18.60;66.80;;;;;;5016367;28;20034;-72
2022/04/24 08:05:32;;;;;;;4.47;3.63;;;18.60;66.70;;;;;;5016367;28;20026;-73
2022/04/24 08:08:00;;;;;;;4.30;3.90;;;18.60;66.80;;;;;;5015209;28;20125;-71
2022/04/24 08:10:28;;;;;;;5.35;4.15;;;18.60;66.80;;;;;;5015021;28;20068;-72
2022/04/24 08:12:55;;;;;;;4.40;3.92;;;18.60;66.70;;;;;;5028054;28;20025;-71
2022/04/24 08:15:23;;;;;;;4.55;4.15;;;18.60;66.80;;;;;;5034339;28;20499;-71
2022/04/24 08:17:49;;;;;;;6.38;3.90;;;18.60;66.80;;;;;;5034010;28;20063;-71
2022/04/24 08:20:15;;;;;;;4.80;4.03;;;18.60;66.80;;;;;;5035445;28;20026;-71
2022/04/24 08:22:45;;;;;;;4.97;3.72;;;18.60;66.90;;;;;;5034211;28;20060;-72
2022/04/24 08:25:12;;;;;;;3.95;3.55;;;18.60;66.80;;;;;;5034007;28;20025;-72
2022/04/24 08:27:38;;;;;;;4.45;3.78;;;18.60;66.80;;;;;;5032428;28;20161;-71
2022/04/24 08:30:05;;;;;;;4.65;3.60;;;18.60;66.90;;;;;;5034993;28;20100;-71
2022/04/24 08:32:35;;;;;;;3.65;3.30;;;18.60;66.80;;;;;;5033330;28;20040;-71
2022/04/24 08:35:02;;;;;;;4.22;3.20;;;18.70;66.90;;;;;;5033481;28;20029;-71
2022/04/24 08:37:29;;;;;;;4.07;3.60;;;18.60;66.80;;;;;;5033355;28;20021;-71
2022/04/24 08:39:55;;;;;;;5.85;4.00;;;18.60;66.80;;;;;;5033338;28;20045;-72
2022/04/24 08:42:21;;;;;;;5.43;3.67;;;18.60;66.80;;;;;;5033608;28;20104;-72
2022/04/24 08:44:52;;;;;;;3.80;3.22;;;18.60;66.90;;;;;;5034742;28;20096;-71
2022/04/24 08:47:19;;;;;;;7.00;3.95;;;18.60;66.90;;;;;;5034165;28;20113;-71
2022/04/24 08:49:46;;;;;;;4.00;3.58;;;18.60;66.90;;;;;;5034336;28;20018;-71
2022/04/24 08:52:13;;;;;;;4.82;3.50;;;18.60;66.90;;;;;;5034463;28;20025;-71
2022/04/24 08:54:41;;;;;;;4.25;3.60;;;18.60;66.90;;;;;;5033346;28;20026;-72
2022/04/24 08:57:08;;;;;;;4.07;3.67;;;18.60;66.90;;;;;;5033103;28;20117;-71
2022/04/24 08:59:37;;;;;;;4.13;3.80;;;18.60;66.90;;;;;;5032971;28;20030;-71
2022/04/24 09:02:03;;;;;;;4.05;3.55;;;18.60;66.90;;;;;;5033002;28;20108;-71
2022/04/24 09:04:34;;;;;;;5.20;3.70;;;18.60;66.90;;;;;;5033005;28;20156;-72
2022/04/24 09:07:00;;;;;;;4.80;3.33;;;18.60;66.90;;;;;;5033039;28;20124;-71
2022/04/24 09:09:28;;;;;;;4.10;3.70;;;18.60;67.90;;;;;;5032613;28;20025;-71
2022/04/24 09:12:16;;;;;;;5.80;3.80;;;18.60;67.00;;;;;;5016128;28;20021;-71
2022/04/24 09:14:49;;;;;;;3.97;3.58;;;18.70;67.00;;;;;;5024226;28;20033;-71
2022/04/24 09:17:25;;;;;;;;;;;18.60;67.00;;;;;;5013792;28;20036;-71
2022/04/24 09:19:56;;;;;;;3.85;3.50;;;18.60;67.10;;;;;;5014229;28;20291;-71
2022/04/24 09:22:22;;;;;;;7.68;3.65;;;18.50;67.20;;;;;;5013073;28;20030;-71
2022/04/24 09:24:52;;;;;;;3.60;3.25;;;18.50;67.20;;;;;;5014260;28;20053;-71
2022/04/24 09:27:35;;;;;;;3.63;3.33;;;18.50;67.10;;;;;;5014288;28;20171;-71
2022/04/24 09:30:11;;;;;;;3.72;3.42;;;18.60;67.10;;;;;;5012999;28;20022;-71
2022/04/24 09:32:51;;;;;;;3.95;3.55;;;18.60;67.20;;;;;;5013009;28;20029;-71
2022/04/24 09:35:40;;;;;;;3.72;3.08;;;18.60;67.20;;;;;;5012991;28;20436;-71
2022/04/24 09:38:18;;;;;;;4.00;3.60;;;18.60;67.20;;;;;;5012658;28;20029;-71
2022/04/24 09:40:47;;;;;;;4.15;3.38;;;18.60;67.20;;;;;;5012618;28;20065;-71
2022/04/24 09:43:14;;;;;;;4.25;3.85;;;18.60;67.30;;;;;;4996712;28;20064;-71
2022/04/24 09:45:41;;;;;;;3.75;3.30;;;18.60;67.20;;;;;;5012414;28;20026;-71
2022/04/24 09:48:14;;;;;;;6.00;3.47;;;18.60;67.20;;;;;;5012876;28;20030;-71
2022/04/24 09:50:39;;;;;;;4.43;4.03;;;18.60;67.10;;;;;;5012401;28;20014;-71
2022/04/24 09:53:05;;;;;;;3.65;3.35;;;18.60;67.20;;;;;;5012450;28;20022;-71
2022/04/24 09:55:32;;;;;;;3.58;3.00;;;18.60;67.20;;;;;;5012489;28;20611;-71
2022/04/24 09:57:57;;;;;;;3.97;3.60;;;18.60;67.20;;;;;;5012587;28;20029;-71
2022/04/24 10:00:24;;;;;;;3.63;3.33;;;18.60;67.20;;;;;;5012147;28;20030;-71
2022/04/24 10:02:52;;;;;;;3.88;3.47;;;18.60;67.20;;;;;;5012460;28;20215;-71
2022/04/24 10:05:19;;;;;;;3.97;3.60;;;18.60;67.20;;;;;;5013601;28;20029;-71
2022/04/24 10:07:45;;;;;;;3.67;3.38;;;18.60;67.20;;;;;;5013534;28;20026;-71
2022/04/24 10:10:11;;;;;;;3.50;3.20;;;18.60;68.20;;;;;;5012279;28;20381;-71
2022/04/24 10:12:38;;;;;;;3.72;3.38;;;18.60;67.10;;;;;;5024058;28;20033;-71
2022/04/24 10:15:12;;;;;;;5.00;3.75;;;18.60;67.20;;;;;;5015377;28;20420;-71
2022/04/24 10:17:52;;;;;;;3.97;3.60;;;18.60;67.20;;;;;;5031966;28;20173;-71
2022/04/24 10:20:37;;;;;;;3.63;3.33;;;18.60;67.20;;;;;;5031883;28;20076;-71
2022/04/24 10:23:09;;;;;;;4.72;3.60;;;18.60;67.20;;;;;;5032785;28;20025;-71
2022/04/24 10:25:38;;;;;;;9.45;3.50;;;18.60;67.30;;;;;;5031605;28;20048;-71
2022/04/24 10:28:17;;;;;;;6.50;3.53;;;18.60;67.30;;;;;;5032774;28;20017;-71
2022/04/24 10:31:03;;;;;;;5.28;3.25;;;18.60;67.20;;;;;;5031733;28;20028;-71
2022/04/24 10:33:32;;;;;;;5.32;3.50;;;18.60;67.30;;;;;;5015938;28;20519;-71
2022/04/24 10:36:11;;;;;;;4.93;3.80;;;18.60;67.30;;;;;;5031587;28;20480;-71
2022/04/24 10:38:48;;;;;;;4.38;3.67;;;18.60;67.30;;;;;;5032504;28;20396;-71
2022/04/24 10:41:16;;;;;;;5.15;3.50;;;18.60;67.30;;;;;;5032780;28;20120;-71
2022/04/24 10:43:51;;;;;;;5.18;3.63;;;18.60;67.30;;;;;;5031203;28;20017;-71
2022/04/24 10:46:27;;;;;;;4.80;3.40;;;18.60;67.30;;;;;;5015854;28;20033;-71
2022/04/24 10:48:53;;;;;;;3.80;3.38;;;18.60;67.30;;;;;;5031366;28;20028;-71
2022/04/24 10:51:59;;;;;;;3.63;3.30;;;18.60;67.30;;;;;;5014223;28;20029;-71
2022/04/24 10:54:38;;;;;;;7.18;5.38;;;18.60;67.30;;;;;;5032616;28;20018;-73
2022/04/24 10:57:23;;;;;;;9.50;5.82;;;18.60;67.20;;;;;;5031233;28;20476;-73
2022/04/24 10:59:52;;;;;;;8.18;6.57;;;18.60;66.80;;;;;;5032287;28;20075;-73
2022/04/24 11:02:30;;;;;;;10.07;6.82;;;18.50;66.90;;;;;;5032353;28;20029;-73
2022/04/24 11:05:03;;;;;;;13.05;8.13;;;18.50;66.80;;;;;;5014962;28;20385;-73
2022/04/24 11:07:31;;;;;;;16.35;9.23;;;18.50;66.80;;;;;;5032552;28;20068;-71
2022/04/24 11:10:04;;;;;;;15.80;9.23;;;18.50;66.90;;;;;;5014979;28;20388;-73
2022/04/24 11:12:31;;;;;;;16.15;10.05;;;18.50;66.80;;;;;;5031919;28;20040;-72
2022/04/24 11:15:09;;;;;;;16.98;10.50;;;18.40;66.70;;;;;;5031101;28;20044;-73
2022/04/24 11:17:35;;;;;;;16.83;10.52;;;18.40;66.60;;;;;;5031256;28;20017;-72
2022/04/24 11:20:03;;;;;;;20.73;11.75;;;18.40;66.70;;;;;;5031031;28;20046;-71
2022/04/24 11:22:31;;;;;;;20.83;12.90;;;18.40;66.60;;;;;;5032113;28;20040;-71
2022/04/24 11:25:01;;;;;;;22.40;13.13;;;18.40;66.60;;;;;;5031072;28;20071;-72
2022/04/24 11:27:27;;;;;;;24.08;13.82;;;18.40;66.50;;;;;;5030882;28;20080;-74
2022/04/24 11:29:53;;;;;;;26.60;14.18;;;18.40;66.50;;;;;;5032102;28;20029;-74
2022/04/24 11:32:21;;;;;;;26.27;15.07;;;18.40;66.40;;;;;;5031067;28;20550;-74
2022/04/24 11:34:48;;;;;;;23.25;14.85;;;18.30;66.40;;;;;;5031933;28;20041;-74
2022/04/24 11:37:14;;;;;;;26.73;15.40;;;18.30;66.30;;;;;;5032215;28;20108;-75
2022/04/24 11:39:40;;;;;;;28.38;16.15;;;18.40;66.40;;;;;;5031813;28;20184;-74
2022/04/24 11:42:05;;;;;;;28.20;15.10;;;18.30;66.20;;;;;;5032048;28;20041;-74
2022/04/24 11:50:15;;;;;;;25.42;15.90;;;18.30;66.20;;;;;;5031943;28;20460;-74
2022/04/24 11:52:46;;;;;;;28.65;16.58;;;18.30;66.10;;;;;;5031136;28;20030;-74
2022/04/24 11:55:15;;;;;;;24.65;16.10;;;18.30;66.00;;;;;;5030618;28;20101;-74
2022/04/24 11:57:41;;;;;;;26.08;16.48;;;18.30;66.00;;;;;;5030566;28;20400;-75
2022/04/24 12:00:14;;;;;;;35.33;17.85;;;18.30;66.00;;;;;;5014529;28;20022;-74
2022/04/24 12:02:40;;;;;;;;;;;18.30;66.00;;;;;;5033857;28;20028;-75
2022/04/24 12:05:09;;;;;;;30.48;15.98;;;18.20;65.70;;;;;;5036006;28;19905;-74
2022/04/24 12:07:36;;;;;;;28.80;16.40;;;18.20;66.20;;;;;;5034293;28;20029;-74
2022/04/24 12:10:09;;;;;;;26.48;16.58;;;18.20;66.10;;;;;;5034134;28;20580;-74
2022/04/24 12:12:45;;;;;;;26.00;15.98;;;18.20;65.90;;;;;;5034210;28;20080;-71
2022/04/24 12:15:19;;;;;;;33.47;17.40;;;18.20;65.80;;;;;;5050928;28;20020;-71
2022/04/24 12:17:55;;;;;;;30.60;17.60;;;18.20;65.80;;;;;;5035247;28;20100;-74
2022/04/24 12:20:21;;;;;;;28.75;17.35;;;18.30;65.80;;;;;;5043052;28;20017;-74
2022/04/24 12:22:47;;;;;;;36.78;18.35;;;18.20;65.90;;;;;;5014118;28;20025;-74
2022/04/24 12:25:15;;;;;;;27.10;17.13;;;18.20;65.90;;;;;;5013918;28;20021;-74
2022/04/24 12:28:02;;;;;;;32.30;16.80;;;18.20;65.90;;;;;;5014098;28;20026;-74
2022/04/24 12:30:34;;;;;;;30.00;16.83;;;18.30;65.80;;;;;;5015020;28;20081;-74
2022/04/24 12:33:08;;;;;;;29.55;17.67;;;18.20;65.90;;;;;;5014147;28;20104;-74
2022/04/24 12:35:34;;;;;;;34.38;17.75;;;18.20;65.90;;;;;;5015105;28;20034;-74
2022/04/24 12:38:01;;;;;;;33.72;18.40;;;18.20;66.00;;;;;;5014898;28;20096;-74
2022/04/24 12:40:27;;;;;;;30.42;17.67;;;18.30;66.00;;;;;;5013686;28;20096;-74
2022/04/24 12:42:53;;;;;;;36.15;18.00;;;18.30;66.00;;;;;;5013847;28;20033;-74
2022/04/24 12:45:20;;;;;;;25.17;16.10;;;18.30;66.00;;;;;;5014001;28;20030;-73
2022/04/24 12:47:47;;;;;;;28.33;17.02;;;18.30;66.00;;;;;;5013864;28;20045;-73
2022/04/24 12:50:14;;;;;;;28.45;17.30;;;18.30;66.00;;;;;;5014942;28;20025;-73
2022/04/24 12:52:41;;;;;;;30.17;17.40;;;18.30;66.00;;;;;;5013544;28;20030;-73